Terminal Aerodrome Forecast
Issued by NWS

Home | Current Version | Previous Version | Text Only | Print | Product List | Glossary On
Versions: 1 2 3 4 5 6 7 8 9 10 11 12 13 14 15 16 17 18
000
FTUS42 KTAE 180523
TAFECP
TAF
KECP 180523Z 1806/1906 16004KT 6SM BR BKN006
     FM180700 19003KT 1/2SM FG BKN002
     FM180900 VRB03KT 1/4SM FG VV002
     FM181400 VRB03KT P6SM BKN008
     FM181700 19006KT P6SM BKN040
     FM190000 18005KT P6SM SCT050=

USA.gov is the U.S. government's official web portal to all federal, state and local government web resources and services.